Time;durP1;ratioP1;P1;durP2;ratioP2;P2;SDS_P1;SDS_P2;PMS_P1;PMS_P2;Temp;Humidity;BMP_temperature;BMP_pressure;BME280_temperature;BME280_humidity;BME280_pressure;Samples;Min_cycle;Max_cycle;Signal;HPM_P1;HPM_P2
2024/03/03 00:01:31;;;;;;;2.92;2.10;;;;;;;8.15;100.00;99838.06;5071155;28;20099;-81
2024/03/03 00:03:56;;;;;;;2.10;1.80;;;;;;;8.06;100.00;99837.13;5089898;28;20038;-81
2024/03/03 00:06:21;;;;;;;4.32;1.98;;;;;;;7.99;100.00;99833.38;5070965;28;20105;-81
2024/03/03 00:08:47;;;;;;;4.38;2.10;;;;;;;7.97;100.00;99837.16;5071683;28;20036;-81
2024/03/03 00:11:12;;;;;;;3.03;2.33;;;;;;;7.96;100.00;99838.97;5090091;28;20028;-80
2024/03/03 00:13:38;;;;;;;1.90;1.52;;;;;;;7.99;100.00;99838.69;5070637;28;20402;-81
2024/03/03 00:16:06;;;;;;;5.35;1.92;;;;;;;8.00;100.00;99848.31;5089450;28;20081;-82
2024/03/03 00:18:31;;;;;;;1.92;1.73;;;;;;;8.07;100.00;99845.88;5089151;28;20102;-82
2024/03/03 00:20:57;;;;;;;3.72;2.10;;;;;;;8.09;100.00;99846.56;5071395;28;20494;-81
2024/03/03 00:23:22;;;;;;;3.72;1.90;;;;;;;8.10;100.00;99853.53;5089348;28;20101;-82
2024/03/03 00:25:48;;;;;;;3.95;1.63;;;;;;;8.15;100.00;99850.44;5071313;28;20088;-82
2024/03/03 00:28:13;;;;;;;2.80;2.00;;;;;;;8.19;100.00;99855.31;5089506;28;20111;-81
2024/03/03 00:30:39;;;;;;;2.80;1.92;;;;;;;8.22;100.00;99849.72;5091066;28;20093;-83
2024/03/03 00:33:04;;;;;;;1.92;1.70;;;;;;;8.25;100.00;99856.53;5093224;28;20430;-79
2024/03/03 00:35:30;;;;;;;1.75;1.52;;;;;;;8.28;100.00;99865.03;5092794;28;20035;-81
2024/03/03 00:37:55;;;;;;;2.20;1.70;;;;;;;8.35;100.00;99867.09;5074851;28;20024;-81
2024/03/03 00:40:20;;;;;;;1.60;1.50;;;;;;;8.34;100.00;99862.75;5057924;28;20081;-81
2024/03/03 00:42:46;;;;;;;2.55;1.80;;;;;;;8.33;100.00;99858.44;5092526;28;20356;-81
2024/03/03 00:45:11;;;;;;;2.05;1.85;;;;;;;8.31;100.00;99853.28;5093061;28;20103;-81
2024/03/03 00:47:37;;;;;;;2.30;1.83;;;;;;;8.30;100.00;99857.75;5074264;28;20024;-80
2024/03/03 00:50:04;;;;;;;2.20;2.00;;;;;;;8.33;100.00;99856.66;5092918;28;20035;-81
2024/03/03 00:52:30;;;;;;;2.05;1.70;;;;;;;8.34;100.00;99854.81;5092575;28;20088;-81
2024/03/03 00:54:56;;;;;;;3.33;1.63;;;;;;;8.35;100.00;99846.72;5092874;28;20102;-80
2024/03/03 00:57:22;;;;;;;1.95;1.67;;;;;;;8.37;100.00;99855.34;5074564;28;20016;-81
2024/03/03 00:59:47;;;;;;;2.10;1.52;;;;;;;8.36;100.00;99856.34;5092270;28;20130;-80
2024/03/03 01:02:13;;;;;;;2.47;1.60;;;;;;;8.33;100.00;99848.69;5092595;28;20533;-80
2024/03/03 01:04:38;;;;;;;2.00;1.50;;;;;;;8.30;100.00;99862.25;5092386;28;20410;-80
2024/03/03 01:07:03;;;;;;;2.60;1.70;;;;;;;8.28;100.00;99862.38;5092762;28;20454;-80
2024/03/03 01:09:29;;;;;;;1.67;1.55;;;;;;;8.25;100.00;99867.13;5092170;28;20043;-80
2024/03/03 01:11:54;;;;;;;2.38;1.80;;;;;;;8.23;100.00;99855.84;5074161;28;20062;-80
2024/03/03 01:14:21;;;;;;;6.18;1.70;;;;;;;8.20;100.00;99858.81;5092424;28;20032;-80
2024/03/03 01:16:47;;;;;;;2.42;1.85;;;;;;;8.17;100.00;99859.09;5092177;28;20340;-80
2024/03/03 01:19:12;;;;;;;1.85;1.60;;;;;;;8.14;100.00;99862.88;5092464;28;20032;-81
2024/03/03 01:21:41;;;;;;;2.13;1.75;;;;;;;8.11;100.00;99860.53;5091903;28;20032;-80
2024/03/03 01:24:06;;;;;;;5.38;1.70;;;;;;;8.07;100.00;99862.63;5092351;28;20040;-80
2024/03/03 01:26:32;;;;;;;1.85;1.67;;;;;;;8.08;100.00;99861.63;5091883;28;20169;-80
2024/03/03 01:28:57;;;;;;;1.65;1.40;;;;;;;8.08;100.00;99861.63;5092243;28;20043;-81
2024/03/03 01:31:23;;;;;;;2.75;1.60;;;;;;;8.06;100.00;99853.00;5092259;28;20395;-80
2024/03/03 01:33:48;;;;;;;2.53;1.75;;;;;;;8.03;100.00;99855.09;5091740;28;20107;-82
2024/03/03 01:36:14;;;;;;;2.72;1.50;;;;;;;7.98;100.00;99860.84;5092213;28;20039;-80
2024/03/03 01:38:39;;;;;;;2.40;1.50;;;;;;;7.93;100.00;99869.22;5073580;28;20448;-80
2024/03/03 01:41:04;;;;;;;1.90;1.60;;;;;;;7.86;100.00;99864.66;5073814;28;20032;-80
2024/03/03 01:43:30;;;;;;;3.60;1.90;;;;;;;7.72;100.00;99858.03;5091900;28;20032;-81
2024/03/03 01:45:55;;;;;;;1.70;1.48;;;;;;;7.55;100.00;99862.25;5091448;28;20035;-80
2024/03/03 01:48:21;;;;;;;2.55;1.77;;;;;;;7.36;100.00;99871.06;5091547;28;20471;-80
2024/03/03 01:50:49;;;;;;;3.10;1.77;;;;;;;7.18;100.00;99866.50;5072976;28;20146;-81
2024/03/03 01:53:15;;;;;;;1.70;1.60;;;;;;;7.06;100.00;99859.66;5091615;28;20188;-81
2024/03/03 01:55:41;;;;;;;2.17;1.83;;;;;;;6.98;100.00;99865.66;5072927;28;20101;-81
2024/03/03 01:58:10;;;;;;;3.67;2.58;;;;;;;7.06;100.00;99872.91;5073365;28;20020;-81
2024/03/03 02:00:36;;;;;;;6.50;3.33;;;;;;;7.17;100.00;99871.94;5091020;28;20111;-79
2024/03/03 02:03:05;;;;;;;6.88;3.30;;;;;;;7.22;100.00;99878.44;5091415;28;20112;-81
2024/03/03 02:05:31;;;;;;;4.47;3.58;;;;;;;7.24;100.00;99883.63;5090984;28;20024;-81
2024/03/03 02:07:56;;;;;;;4.43;3.92;;;;;;;7.21;100.00;99881.25;5072821;28;20107;-80
2024/03/03 02:10:22;;;;;;;8.65;5.47;;;;;;;7.11;100.00;99885.72;5091203;28;20444;-81
2024/03/03 02:12:48;;;;;;;7.35;4.43;;;;;;;6.96;100.00;99885.31;5090816;28;20115;-82
2024/03/03 02:15:14;;;;;;;6.38;4.22;;;;;;;6.79;100.00;99885.03;5091149;28;20058;-82
2024/03/03 02:17:39;;;;;;;7.95;4.63;;;;;;;6.62;100.00;99885.69;5072340;28;20020;-81
2024/03/03 02:20:05;;;;;;;8.70;4.65;;;;;;;6.48;100.00;99887.75;5091229;28;20040;-81
2024/03/03 02:22:30;;;;;;;9.05;4.80;;;;;;;6.40;100.00;99886.75;5091393;28;20445;-81
2024/03/03 02:24:56;;;;;;;8.25;5.68;;;;;;;6.35;100.00;99895.91;5090699;28;20120;-81
2024/03/03 02:27:23;;;;;;;9.82;5.63;;;;;;;6.32;100.00;99890.06;5091055;28;20069;-81
2024/03/03 02:29:49;;;;;;;8.75;5.45;;;;;;;6.31;100.00;99888.41;5091312;28;20099;-82
2024/03/03 02:32:14;;;;;;;9.82;5.88;;;;;;;6.29;100.00;99885.88;5073120;28;20492;-80
2024/03/03 02:34:40;;;;;;;8.27;5.60;;;;;;;6.28;100.00;99883.38;5090989;28;20035;-80
2024/03/03 02:37:05;;;;;;;9.52;5.50;;;;;;;6.31;100.00;99883.13;5090347;28;20391;-80
2024/03/03 02:39:31;;;;;;;8.57;5.90;;;;;;;6.31;100.00;99885.75;5072611;28;20036;-80
2024/03/03 02:41:56;;;;;;;9.93;5.65;;;;;;;6.30;100.00;99879.66;5090431;28;20030;-81
2024/03/03 02:44:22;;;;;;;7.82;4.97;;;;;;;6.29;100.00;99877.13;5090680;28;20111;-82
2024/03/03 02:46:48;;;;;;;6.60;4.45;;;;;;;6.29;100.00;99890.34;5090196;28;20024;-81
2024/03/03 02:49:14;;;;;;;8.95;4.88;;;;;;;6.28;100.00;99893.94;5090854;28;20034;-82
2024/03/03 02:51:40;;;;;;;10.05;4.60;;;;;;;6.25;100.00;99894.22;5090966;28;20440;-82
2024/03/03 02:54:05;;;;;;;6.75;4.60;;;;;;;6.19;100.00;99906.16;5071709;28;20505;-82
2024/03/03 02:56:31;;;;;;;11.13;5.65;;;;;;;6.14;100.00;99909.19;5072505;28;20032;-82
2024/03/03 02:58:56;;;;;;;9.40;4.30;;;;;;;6.10;100.00;99913.06;5090456;28;20439;-82
2024/03/03 03:01:21;;;;;;;9.70;4.68;;;;;;;6.08;100.00;99912.38;5090618;28;20130;-82
2024/03/03 03:03:47;;;;;;;9.77;4.72;;;;;;;6.06;100.00;99911.69;5090347;28;20333;-81
2024/03/03 03:06:16;;;;;;;10.65;5.10;;;;;;;6.06;100.00;99908.19;5072076;28;20169;-81
2024/03/03 03:08:41;;;;;;;7.90;5.28;;;;;;;6.03;100.00;99911.94;5090657;28;20019;-82
2024/03/03 03:11:06;;;;;;;10.80;5.13;;;;;;;6.00;100.00;99910.41;5090042;28;20027;-80
2024/03/03 03:13:32;;;;;;;7.80;5.28;;;;;;;5.98;100.00;99914.13;5090495;28;20035;-81
2024/03/03 03:15:57;;;;;;;7.53;5.25;;;;;;;5.92;100.00;99909.34;5090072;28;20104;-81
2024/03/03 03:18:23;;;;;;;9.85;5.25;;;;;;;5.84;100.00;99910.00;5090443;28;20028;-80
2024/03/03 03:20:48;;;;;;;12.80;5.63;;;;;;;5.76;100.00;99913.31;5090082;28;20165;-80
2024/03/03 03:23:13;;;;;;;9.48;5.00;;;;;;;5.70;100.00;99912.97;5090493;28;20024;-81
2024/03/03 03:25:39;;;;;;;10.63;5.60;;;;;;;5.64;100.00;99914.34;5072209;28;20028;-81
2024/03/03 03:28:05;;;;;;;9.02;5.63;;;;;;;5.58;100.00;99907.78;5089846;28;20513;-81
2024/03/03 03:30:30;;;;;;;9.38;5.32;;;;;;;5.54;100.00;99914.28;5071846;28;20085;-82
2024/03/03 03:32:56;;;;;;;12.63;6.20;;;;;;;5.50;100.00;99907.59;5089752;28;20032;-81
2024/03/03 03:35:22;;;;;;;8.93;5.18;;;;;;;5.48;100.00;99912.16;5071981;28;20036;-82
2024/03/03 03:37:48;;;;;;;8.57;5.20;;;;;;;5.43;100.00;99916.97;5090076;28;20028;-81
2024/03/03 03:40:13;;;;;;;9.48;5.10;;;;;;;5.40;100.00;99922.50;5089826;28;20020;-82
2024/03/03 03:42:39;;;;;;;7.93;5.45;;;;;;;5.41;100.00;99927.66;5090362;28;20485;-82
2024/03/03 03:45:05;;;;;;;9.85;5.43;;;;;;;5.43;100.00;99927.53;5089744;28;20456;-81
2024/03/03 03:47:32;;;;;;;8.80;5.43;;;;;;;5.46;100.00;99922.84;5090080;28;20061;-82
2024/03/03 03:49:57;;;;;;;10.60;5.60;;;;;;;5.50;100.00;99928.69;5090008;28;20165;-81
2024/03/03 03:52:23;;;;;;;11.10;5.97;;;;;;;5.54;100.00;99927.47;5090096;28;20056;-81
2024/03/03 03:54:48;;;;;;;9.85;5.53;;;;;;;5.58;100.00;99923.63;5090107;28;20024;-81
2024/03/03 03:57:14;;;;;;;11.20;5.90;;;;;;;5.59;100.00;99925.28;5089557;28;20337;-81
2024/03/03 03:59:40;;;;;;;12.77;5.47;;;;;;;5.63;100.00;99928.50;5090099;28;20111;-81
2024/03/03 04:02:05;;;;;;;11.48;5.45;;;;;;;5.66;100.00;99925.63;5071453;28;20058;-81
2024/03/03 04:04:37;;;;;;;14.43;5.40;;;;;;;5.68;100.00;99930.75;5090051;28;20043;-81
2024/03/03 04:07:04;;;;;;;8.93;5.22;;;;;;;5.71;100.00;99935.78;5093243;28;20044;-81
2024/03/03 04:09:31;;;;;;;9.32;5.40;;;;;;;5.72;100.00;99935.66;5094043;28;20099;-81
2024/03/03 04:11:56;;;;;;;10.45;5.43;;;;;;;5.74;100.00;99935.53;5093359;28;20032;-81
2024/03/03 04:14:22;;;;;;;11.23;5.20;;;;;;;5.75;100.00;99940.66;5093802;28;20525;-81
2024/03/03 04:16:47;;;;;;;10.50;5.32;;;;;;;5.78;100.00;99936.94;5093575;28;20127;-81
2024/03/03 04:19:13;;;;;;;13.45;4.97;;;;;;;5.78;100.00;99943.03;5093156;28;20059;-81
2024/03/03 04:21:41;;;;;;;8.00;4.63;;;;;;;5.78;100.00;99934.31;5093630;28;20036;-81
2024/03/03 04:24:07;;;;;;;9.10;5.60;;;;;;;5.75;100.00;99940.66;5074499;28;20097;-81
2024/03/03 04:26:34;;;;;;;11.57;5.00;;;;;;;5.71;100.00;99943.69;5093366;28;20068;-81
2024/03/03 04:29:00;;;;;;;10.65;5.22;;;;;;;5.61;100.00;99943.63;5074647;28;20032;-81
2024/03/03 04:31:25;;;;;;;12.93;4.88;;;;;;;5.46;100.00;99946.59;5093400;28;20032;-81
2024/03/03 04:33:51;;;;;;;11.23;5.35;;;;;;;5.34;100.00;99946.78;5093182;28;20043;-81
2024/03/03 04:36:16;;;;;;;10.35;4.60;;;;;;;5.21;100.00;99949.56;5092783;28;20059;-81
2024/03/03 04:38:42;;;;;;;9.32;5.05;;;;;;;5.07;100.00;99948.91;5093176;28;20413;-82
2024/03/03 04:41:15;;;;;;;12.50;5.25;;;;;;;5.00;100.00;99960.06;5092659;28;20036;-81
2024/03/03 04:43:41;;;;;;;10.15;5.47;;;;;;;4.91;100.00;99969.56;5093078;28;20044;-81
2024/03/03 04:46:08;;;;;;;9.85;4.80;;;;;;;4.82;100.00;99960.63;5092578;28;20123;-81
2024/03/03 04:48:34;;;;;;;8.93;5.20;;;;;;;4.78;100.00;99967.09;5074691;28;20028;-81
2024/03/03 04:50:59;;;;;;;10.20;5.15;;;;;;;4.76;100.00;99961.94;5092593;28;20030;-81
2024/03/03 04:53:24;;;;;;;11.15;5.55;;;;;;;4.77;100.00;99966.25;5092827;28;20051;-81
2024/03/03 04:55:50;;;;;;;10.32;5.25;;;;;;;4.79;100.00;99966.13;5092813;28;20028;-81
2024/03/03 04:58:15;;;;;;;9.77;5.43;;;;;;;4.84;100.00;99963.97;5092443;28;20028;-81
2024/03/03 05:00:40;;;;;;;10.18;5.43;;;;;;;4.92;100.00;99966.81;5074354;28;20036;-81
2024/03/03 05:03:06;;;;;;;11.20;5.55;;;;;;;4.99;100.00;99980.34;5092323;28;20035;-81
2024/03/03 05:05:31;;;;;;;12.73;6.00;;;;;;;5.03;100.00;99970.38;5092749;28;20121;-81
2024/03/03 05:07:56;;;;;;;10.23;5.60;;;;;;;5.09;100.00;99983.91;5074399;28;20329;-81
2024/03/03 05:10:22;;;;;;;10.23;5.88;;;;;;;5.14;100.00;99982.72;5092152;28;20390;-81
2024/03/03 05:12:48;;;;;;;12.05;5.60;;;;;;;5.18;100.00;99992.03;5092409;28;20453;-81
2024/03/03 05:15:13;;;;;;;10.98;4.70;;;;;;;5.20;100.00;99998.03;5073482;28;20420;-81
2024/03/03 05:17:38;;;;;;;8.70;5.63;;;;;;;5.22;100.00;100002.19;5092259;28;20444;-81
2024/03/03 05:20:05;;;;;;;10.80;5.95;;;;;;;5.25;100.00;100004.56;5091810;28;20055;-81
2024/03/03 05:22:30;;;;;;;12.63;5.78;;;;;;;5.28;100.00;99999.09;5092183;28;20039;-81
2024/03/03 05:24:56;;;;;;;9.13;5.50;;;;;;;5.30;100.00;100005.06;5092299;28;20028;-81
2024/03/03 05:27:22;;;;;;;11.80;5.80;;;;;;;5.35;100.00;100004.69;5091677;28;20087;-81
2024/03/03 05:29:47;;;;;;;10.23;5.55;;;;;;;5.38;100.00;100014.16;5092440;28;20474;-82
2024/03/03 05:32:12;;;;;;;10.73;5.38;;;;;;;5.40;100.00;100012.22;5056813;28;20024;-81
2024/03/03 05:34:38;;;;;;;14.43;6.30;;;;;;;5.41;100.00;100014.72;5092051;28;20493;-81
2024/03/03 05:37:04;;;;;;;10.40;5.82;;;;;;;5.43;100.00;100022.50;5092036;28;20020;-81
2024/03/03 05:39:29;;;;;;;10.93;6.00;;;;;;;5.43;100.00;100022.50;5091800;28;20035;-81
2024/03/03 05:41:56;;;;;;;11.63;5.68;;;;;;;5.41;100.00;100022.63;5073906;28;20059;-81
2024/03/03 05:44:22;;;;;;;9.27;5.60;;;;;;;5.43;100.00;100027.78;5091440;28;20032;-81
2024/03/03 05:46:47;;;;;;;10.55;5.63;;;;;;;5.45;100.00;100031.16;5091895;28;20024;-81
2024/03/03 05:49:13;;;;;;;10.63;5.20;;;;;;;5.47;100.00;100031.84;5091684;28;20077;-81
2024/03/03 05:51:38;;;;;;;13.88;5.57;;;;;;;5.49;100.00;100029.91;5091936;28;20493;-81
2024/03/03 05:54:04;;;;;;;9.10;4.90;;;;;;;5.53;100.00;100035.81;5091744;28;20209;-81
2024/03/03 05:56:29;;;;;;;8.05;4.75;;;;;;;5.52;100.00;100042.88;5091307;28;20104;-82
2024/03/03 05:58:55;;;;;;;9.25;5.07;;;;;;;5.52;100.00;100037.59;5091580;28;20503;-81
2024/03/03 06:01:20;;;;;;;13.07;5.20;;;;;;;5.51;100.00;100041.22;5091112;28;20383;-81
2024/03/03 06:03:45;;;;;;;9.45;5.07;;;;;;;5.52;100.00;100047.31;5073377;28;20115;-81
2024/03/03 06:06:11;;;;;;;8.02;5.13;;;;;;;5.53;100.00;100044.53;5072574;28;20083;-81
2024/03/03 06:08:41;;;;;;;10.73;5.60;;;;;;;5.56;100.00;100054.03;5091412;28;20116;-81
2024/03/03 06:11:07;;;;;;;13.87;5.20;;;;;;;5.58;100.00;100041.53;5091454;28;20031;-81
2024/03/03 06:13:34;;;;;;;10.20;4.90;;;;;;;5.61;100.00;100051.81;5090847;28;20285;-81
2024/03/03 06:15:59;;;;;;;9.65;4.88;;;;;;;5.61;100.00;100054.47;5091241;28;20062;-81
2024/03/03 06:18:27;;;;;;;12.60;5.20;;;;;;;5.59;100.00;100059.03;5090820;28;20067;-81
2024/03/03 06:20:53;;;;;;;10.82;5.07;;;;;;;5.58;100.00;100060.84;5091129;28;20420;-81
2024/03/03 06:23:18;;;;;;;10.15;4.65;;;;;;;5.58;100.00;100071.41;5091077;28;20055;-80
2024/03/03 06:25:43;;;;;;;7.97;4.40;;;;;;;5.59;100.00;100065.16;5091043;28;20031;-82
2024/03/03 06:28:09;;;;;;;9.38;5.30;;;;;;;5.58;100.00;100063.50;5071848;28;20028;-81
2024/03/03 06:30:34;;;;;;;10.70;5.13;;;;;;;5.58;100.00;100068.78;5090820;28;20390;-82
2024/03/03 06:32:59;;;;;;;10.02;5.97;;;;;;;5.59;100.00;100073.06;5090887;28;20036;-80
2024/03/03 06:35:25;;;;;;;9.65;5.35;;;;;;;5.60;100.00;100074.75;5090611;28;20429;-80
2024/03/03 06:37:51;;;;;;;10.57;5.53;;;;;;;5.61;100.00;100075.56;5072879;28;20120;-81
2024/03/03 06:40:17;;;;;;;9.43;5.20;;;;;;;5.64;100.00;100081.47;5090565;28;20488;-81
2024/03/03 06:42:43;;;;;;;9.82;5.72;;;;;;;5.67;100.00;100088.28;5090941;28;20085;-81
2024/03/03 06:45:09;;;;;;;11.13;5.20;;;;;;;5.68;100.00;100097.03;5090952;28;20479;-81
2024/03/03 06:47:34;;;;;;;10.27;5.22;;;;;;;5.68;100.00;100097.88;5090345;28;20036;-81
2024/03/03 06:50:00;;;;;;;12.40;5.93;;;;;;;5.70;100.00;100105.66;5090934;28;20024;-80
2024/03/03 06:52:26;;;;;;;12.82;6.03;;;;;;;5.73;100.00;100102.78;5090633;28;20059;-80
2024/03/03 06:54:52;;;;;;;11.00;5.55;;;;;;;5.76;100.00;100106.00;5090922;28;20082;-81
2024/03/03 06:57:17;;;;;;;10.60;5.57;;;;;;;5.81;100.00;100108.28;5090695;28;20326;-81
2024/03/03 06:59:43;;;;;;;8.95;5.63;;;;;;;5.83;100.00;100119.53;5090647;28;20405;-81
2024/03/03 07:02:09;;;;;;;11.25;5.97;;;;;;;5.85;100.00;100119.41;5090689;28;20483;-80
2024/03/03 07:04:34;;;;;;;10.50;5.90;;;;;;;5.85;100.00;100117.59;5090720;28;20119;-81
2024/03/03 07:07:00;;;;;;;10.98;5.93;;;;;;;5.85;100.00;100120.25;5090257;28;20044;-80
2024/03/03 07:09:25;;;;;;;10.43;5.63;;;;;;;5.89;100.00;100131.41;5090340;28;20032;-81
2024/03/03 07:11:54;;;;;;;12.43;6.72;;;;;;;5.89;100.00;100120.84;5090843;28;20074;-80
2024/03/03 07:14:21;;;;;;;9.60;6.25;;;;;;;5.91;100.00;100119.75;5089894;28;20114;-81
2024/03/03 07:16:47;;;;;;;12.68;6.28;;;;;;;5.94;100.00;100127.44;5090840;28;20028;-80
2024/03/03 07:19:12;;;;;;;12.38;6.85;;;;;;;5.97;100.00;100121.06;5090433;28;20028;-81
2024/03/03 07:21:37;;;;;;;11.88;6.57;;;;;;;5.99;100.00;100119.16;5071687;28;20039;-81
2024/03/03 07:24:03;;;;;;;9.38;6.40;;;;;;;6.01;100.00;100122.50;5090702;28;20024;-80
2024/03/03 07:26:29;;;;;;;10.38;6.10;;;;;;;6.03;100.00;100128.50;5089905;28;20111;-80
2024/03/03 07:28:54;;;;;;;13.95;6.63;;;;;;;6.06;100.00;100135.31;5090624;28;20047;-81
2024/03/03 07:31:20;;;;;;;10.23;5.57;;;;;;;6.07;100.00;100127.25;5090429;28;20506;-81
2024/03/03 07:33:45;;;;;;;13.07;6.38;;;;;;;6.12;100.00;100124.22;5090267;28;20064;-81
2024/03/03 07:36:11;;;;;;;10.88;6.38;;;;;;;6.15;100.00;100121.34;5090270;28;20059;-80
2024/03/03 07:38:36;;;;;;;9.73;5.95;;;;;;;6.20;100.00;100115.69;5072120;28;20032;-80
2024/03/03 07:41:02;;;;;;;12.88;7.22;;;;;;;6.26;100.00;100120.47;5094408;28;20028;-81
2024/03/03 07:43:28;;;;;;;11.40;6.25;;;;;;;6.30;100.00;100117.44;5094058;28;20039;-80
2024/03/03 07:45:53;;;;;;;13.05;6.55;;;;;;;6.37;100.00;100123.03;5094559;28;20020;-80
2024/03/03 07:48:19;;;;;;;10.45;6.47;;;;;;;6.43;100.00;100125.16;5094392;28;20028;-81
2024/03/03 07:50:44;;;;;;;8.27;6.10;;;;;;;6.49;100.00;100127.28;5093793;28;20039;-81
2024/03/03 07:53:10;;;;;;;13.00;6.95;;;;;;;6.56;100.00;100132.06;5094514;28;20206;-81
2024/03/03 07:55:36;;;;;;;9.90;6.88;;;;;;;6.64;100.00;100134.88;5094001;28;20360;-80
2024/03/03 07:58:01;;;;;;;10.27;7.18;;;;;;;6.76;100.00;100133.81;5076011;28;20042;-80
2024/03/03 08:00:33;;;;;;;9.45;6.38;;;;;;;6.93;100.00;100139.47;5093590;28;20106;-81
2024/03/03 08:03:04;;;;;;;11.00;6.90;;;;;;;7.10;100.00;100141.47;5093916;28;20020;-78
2024/03/03 08:05:30;;;;;;;12.18;7.07;;;;;;;7.26;100.00;100143.63;5076096;28;20028;-82
2024/03/03 08:07:55;;;;;;;10.38;6.60;;;;;;;7.41;100.00;100141.44;5093786;28;20475;-82
2024/03/03 08:10:20;;;;;;;13.45;5.97;;;;;;;7.59;100.00;100136.31;5093876;28;20028;-80
2024/03/03 08:12:46;;;;;;;9.00;6.15;;;;;;;7.81;100.00;100140.53;5093323;28;20115;-80
2024/03/03 08:15:12;;;;;;;8.52;6.60;;;;;;;8.00;100.00;100146.81;5093717;28;20429;-82
2024/03/03 08:17:37;;;;;;;7.47;5.90;;;;;;;8.15;100.00;100147.22;5093312;28;20035;-81
2024/03/03 08:20:03;;;;;;;9.07;6.28;;;;;;;8.25;100.00;100145.41;5093747;28;20032;-81
2024/03/03 08:22:28;;;;;;;6.50;5.40;;;;;;;8.33;100.00;100150.84;5093303;28;20357;-79
2024/03/03 08:24:54;;;;;;;7.53;5.60;;;;;;;8.34;100.00;100146.38;5075326;28;20145;-80
2024/03/03 08:27:19;;;;;;;11.05;5.70;;;;;;;8.33;100.00;100164.09;5093382;28;20028;-79
2024/03/03 08:29:45;;;;;;;7.47;5.82;;;;;;;8.28;100.00;100164.53;5093136;28;20024;-79
2024/03/03 08:32:10;;;;;;;8.75;6.10;;;;;;;8.29;100.00;100165.38;5093115;28;20039;-78
2024/03/03 08:34:36;;;;;;;9.10;6.15;;;;;;;8.32;100.00;100162.44;5092621;28;20024;-79
2024/03/03 08:37:01;;;;;;;10.75;6.38;;;;;;;8.38;100.00;100159.22;5093360;28;20028;-78
2024/03/03 08:39:26;;;;;;;7.93;6.15;;;;;;;8.50;100.00;100164.41;5093043;28;20463;-80
2024/03/03 08:41:52;;;;;;;8.35;6.38;;;;;;;8.68;100.00;100161.84;5092676;28;20056;-81
2024/03/03 08:44:17;;;;;;;9.45;6.15;;;;;;;8.79;100.00;100162.53;5074697;28;20036;-78
2024/03/03 08:46:43;;;;;;;9.75;6.70;;;;;;;8.91;100.00;100167.63;5092580;28;20043;-82
2024/03/03 08:49:08;;;;;;;10.05;6.32;;;;;;;8.89;100.00;100153.69;5092885;28;20117;-81
2024/03/03 08:51:42;;;;;;;9.85;6.40;;;;;;;8.88;100.00;100150.19;5091431;28;20035;-80
2024/03/03 08:54:07;;;;;;;12.02;6.32;;;;;;;8.82;100.00;100146.31;5074525;28;20028;-78
2024/03/03 08:56:33;;;;;;;7.38;6.07;;;;;;;8.82;100.00;100146.31;5092310;28;20028;-78
2024/03/03 08:58:58;;;;;;;9.63;7.43;;;;;;;8.87;100.00;100151.19;5092608;28;20042;-80
2024/03/03 09:01:23;;;;;;;9.77;7.25;;;;;;;8.97;100.00;100143.16;5092663;28;20111;-81
2024/03/03 09:03:49;;;;;;;7.88;6.35;;;;;;;9.29;100.00;100137.44;5092204;28;20429;-80
2024/03/03 09:06:14;;;;;;;7.88;5.85;;;;;;;9.65;100.00;100142.81;5074238;28;20050;-79
2024/03/03 09:08:41;;;;;;;8.52;5.95;;;;;;;10.01;100.00;100140.16;5092056;28;20032;-77
2024/03/03 09:11:07;;;;;;;8.43;6.03;;;;;;;10.51;100.00;100143.25;5074159;28;20038;-79
2024/03/03 09:13:34;;;;;;;7.47;5.80;;;;;;;10.94;100.00;100139.72;5092501;28;20035;-79
2024/03/03 09:15:59;;;;;;;7.38;5.32;;;;;;;11.04;100.00;100152.88;5092682;28;20106;-79
2024/03/03 09:18:25;;;;;;;7.70;5.85;;;;;;;10.96;100.00;100152.00;5092373;28;20032;-82
2024/03/03 09:20:50;;;;;;;8.10;5.85;;;;;;;10.86;100.00;100149.47;5073719;28;20036;-80
2024/03/03 09:23:16;;;;;;;6.88;5.22;;;;;;;10.75;100.00;100137.28;5075725;28;20056;-80
2024/03/03 09:25:41;;;;;;;8.40;5.45;;;;;;;10.63;100.00;100133.19;5059742;28;20077;-79
2024/03/03 09:28:07;;;;;;;9.10;5.82;;;;;;;10.53;100.00;100139.44;5052858;28;20016;-80
2024/03/03 09:30:34;;;;;;;7.68;5.85;;;;;;;10.44;100.00;100137.72;5052845;28;20242;-79
2024/03/03 09:32:59;;;;;;;6.53;5.68;;;;;;;10.43;100.00;100138.72;5070710;28;20441;-80
2024/03/03 09:35:25;;;;;;;7.22;5.97;;;;;;;10.44;100.00;100142.22;5053192;28;20101;-81
2024/03/03 09:37:52;;;;;;;7.63;5.95;;;;;;;10.45;100.00;100147.38;5070307;28;20027;-80
2024/03/03 09:40:19;;;;;;;8.65;5.70;;;;;;;10.49;100.00;100143.41;5071042;28;20067;-79
2024/03/03 09:42:46;;;;;;;10.52;5.80;;;;;;;10.58;100.00;100134.50;5070465;28;20029;-78
2024/03/03 09:45:14;;;;;;;9.43;6.07;;;;;;;10.84;100.00;100135.47;5070948;28;20032;-81
2024/03/03 09:47:40;;;;;;;7.05;6.03;;;;;;;11.18;100.00;100131.97;5052550;28;20123;-81
2024/03/03 09:50:10;;;;;;;8.35;6.07;;;;;;;11.96;100.00;100136.22;5070974;28;20033;-79
2024/03/03 09:52:39;;;;;;;7.83;5.93;;;;;;;12.61;100.00;100123.84;5052997;28;20037;-80
2024/03/03 09:55:08;;;;;;;7.30;5.78;;;;;;;12.96;100.00;100129.78;5070687;28;20032;-80
2024/03/03 09:57:36;;;;;;;6.57;5.32;;;;;;;12.72;100.00;100133.31;5070644;28;20103;-80
2024/03/03 10:00:06;;;;;;;7.68;5.53;;;;;;;12.30;100.00;100127.22;5070491;28;20107;-81
2024/03/03 10:02:35;;;;;;;9.82;6.15;;;;;;;11.92;100.00;100127.69;5070336;28;20040;-81
2024/03/03 10:05:01;;;;;;;6.80;5.57;;;;;;;11.63;100.00;100125.47;5052222;28;20056;-80
2024/03/03 10:07:33;;;;;;;16.67;6.05;;;;;;;11.40;100.00;100125.25;5070162;28;20068;-81
2024/03/03 10:10:05;;;;;;;9.25;6.00;;;;;;;11.11;100.00;100115.81;5052103;28;20085;-78
2024/03/03 10:12:34;;;;;;;9.35;5.85;;;;;;;10.92;100.00;100116.91;5052283;28;20028;-80
2024/03/03 10:15:01;;;;;;;9.00;6.70;;;;;;;10.68;100.00;100130.91;5069763;28;20508;-79
2024/03/03 10:17:26;;;;;;;7.70;6.72;;;;;;;10.58;100.00;100134.50;5070401;28;20116;-79
2024/03/03 10:19:51;;;;;;;11.18;7.25;;;;;;;10.50;100.00;100137.09;5069717;28;20103;-78
2024/03/03 10:22:21;;;;;;;10.02;6.82;;;;;;;10.46;100.00;100134.91;5052017;28;20536;-81
2024/03/03 10:24:46;;;;;;;10.38;6.70;;;;;;;10.40;100.00;100137.22;5069870;28;20134;-78
2024/03/03 10:27:16;;;;;;;7.55;5.78;;;;;;;10.36;100.00;100150.94;5069686;28;20508;-79
2024/03/03 10:29:43;;;;;;;9.70;6.30;;;;;;;10.32;100.00;100146.94;5069901;28;20480;-80
2024/03/03 10:32:10;;;;;;;9.80;6.55;;;;;;;10.35;100.00;100151.97;5069744;28;20098;-78
2024/03/03 10:34:36;;;;;;;9.50;6.13;;;;;;;10.38;100.00;100162.28;5051500;28;20107;-80
2024/03/03 10:37:03;;;;;;;7.88;6.45;;;;;;;10.42;100.00;100153.03;5069624;28;20024;-80
2024/03/03 10:39:32;;;;;;;10.20;6.00;;;;;;;10.47;100.00;100157.88;5070055;28;20032;-78
2024/03/03 10:41:57;;;;;;;16.63;6.15;;;;;;;10.53;100.00;100166.06;5069350;28;20425;-77
2024/03/03 10:44:23;;;;;;;7.40;5.95;;;;;;;10.62;100.00;100172.28;5051696;28;20311;-79
2024/03/03 10:46:50;;;;;;;7.50;6.18;;;;;;;10.71;100.00;100168.66;5069018;28;20069;-78
2024/03/03 10:49:16;;;;;;;8.45;5.75;;;;;;;10.77;100.00;100173.34;5069442;28;20388;-78
2024/03/03 10:51:44;;;;;;;7.53;6.05;;;;;;;10.79;100.00;100172.38;5069589;28;20048;-78
2024/03/03 10:54:10;;;;;;;7.68;5.80;;;;;;;10.90;100.00;100172.13;5069405;28;20028;-78
2024/03/03 10:56:36;;;;;;;7.88;5.85;;;;;;;11.09;100.00;100171.91;5069578;28;20377;-78
2024/03/03 10:59:04;;;;;;;6.90;5.88;;;;;;;11.35;100.00;100167.53;5069267;28;20029;-77
2024/03/03 11:01:32;;;;;;;9.10;5.70;;;;;;;11.55;100.00;100165.41;5069210;28;20029;-78
2024/03/03 11:03:59;;;;;;;8.38;5.95;;;;;;;11.59;100.00;100172.91;5050811;28;20673;-80
2024/03/03 11:06:25;;;;;;;11.10;6.10;;;;;;;11.69;100.00;100174.59;5071914;28;20154;-79
2024/03/03 11:08:53;;;;;;;8.90;6.25;;;;;;;11.57;100.00;100182.91;5071459;28;20472;-79
2024/03/03 11:11:24;;;;;;;6.40;5.43;;;;;;;11.35;100.00;100178.19;5090426;28;20081;-79
2024/03/03 11:14:09;;;;;;;10.85;6.60;;;;;;;11.26;100.00;100183.44;5089375;28;20044;-80
2024/03/03 11:16:37;;;;;;;8.40;5.28;;;;;;;11.10;100.00;100178.03;5072035;28;20081;-79
2024/03/03 11:19:05;;;;;;;8.25;5.65;;;;;;;11.07;100.00;100179.19;5089883;28;20036;-79